Time;durP1;ratioP1;P1;durP2;ratioP2;P2;SDS_P1;SDS_P2;PMS_P1;PMS_P2;Temp;Humidity;BMP_temperature;BMP_pressure;BME280_temperature;BME280_humidity;BME280_pressure;Samples;Min_cycle;Max_cycle;Signal;HPM_P1;HPM_P2
2020/12/09 00:02:15;;;;;;;30.70;17.97;;;2.10;99.90;;;;;;6178783;23;20391;-86
2020/12/09 00:04:42;;;;;;;31.40;19.70;;;2.20;99.90;;;;;;6178812;23;20395;-85
2020/12/09 00:07:18;;;;;;;34.40;21.30;;;2.20;99.90;;;;;;6205333;23;20794;-85
2020/12/09 00:10:04;;;;;;;;;;;;;;;;;;;;;
2020/12/09 00:12:42;;;;;;;29.53;19.40;;;2.30;99.90;;;;;;6205780;23;20415;-86
2020/12/09 00:15:11;;;;;;;30.70;19.77;;;2.30;99.90;;;;;;6177245;23;20873;-86
2020/12/09 00:17:43;;;;;;;29.93;18.23;;;2.30;99.90;;;;;;6206019;23;20458;-86
2020/12/09 00:20:49;;;;;;;35.20;19.80;;;2.30;99.90;;;;;;6178254;23;20391;-85
2020/12/09 00:29:41;;;;;;;31.13;18.30;;;2.20;99.90;;;;;;6153512;23;20987;-85
2020/12/09 00:32:12;;;;;;;34.07;19.60;;;2.20;99.90;;;;;;6176718;23;20423;-86
2020/12/09 00:35:05;;;;;;;30.00;18.17;;;2.20;99.90;;;;;;6178813;23;20474;-86
2020/12/09 00:37:33;;;;;;;31.63;18.50;;;2.30;99.90;;;;;;6179335;23;20490;-86
2020/12/09 00:40:05;;;;;;;34.33;19.37;;;2.30;99.90;;;;;;6176431;23;20621;-86
2020/12/09 00:42:53;;;;;;;;;;;;;;;;;;;;;
2020/12/09 00:45:28;;;;;;;34.10;19.90;;;2.40;99.90;;;;;;6205412;23;20459;-86
2020/12/09 00:47:55;;;;;;;31.03;19.50;;;2.40;99.90;;;;;;6205031;23;20901;-85
2020/12/09 00:50:43;;;;;;;;;;;;;;;;;;;;;
2020/12/09 00:53:09;;;;;;;34.10;20.67;;;2.30;99.90;;;;;;6182234;23;20417;-86
2020/12/09 00:55:35;;;;;;;35.03;20.33;;;2.40;99.90;;;;;;6178939;23;20397;-86
2020/12/09 00:58:05;;;;;;;32.50;20.90;;;2.40;99.90;;;;;;6204399;23;20672;-86
2020/12/09 01:00:34;;;;;;;32.90;19.47;;;2.40;99.90;;;;;;6178660;23;20707;-86
2020/12/09 01:03:01;;;;;;;33.30;18.87;;;2.50;99.90;;;;;;6205075;23;20437;-86
2020/12/09 01:05:28;;;;;;;28.70;18.43;;;2.40;99.90;;;;;;6152349;23;20405;-86
2020/12/09 01:07:54;;;;;;;32.73;20.10;;;2.50;99.90;;;;;;6178465;23;20387;-86
2020/12/09 01:10:25;;;;;;;29.90;19.33;;;2.50;99.90;;;;;;6205429;23;20457;-86
2020/12/09 01:12:54;;;;;;;36.13;20.63;;;2.50;99.90;;;;;;6178142;23;20431;-85
2020/12/09 01:15:24;;;;;;;35.60;22.40;;;2.40;99.90;;;;;;6177485;23;20937;-86
2020/12/09 01:18:40;;;;;;;34.50;21.63;;;2.50;99.90;;;;;;6177457;23;20376;-86
2020/12/09 01:21:27;;;;;;;31.30;19.67;;;2.50;99.90;;;;;;6171801;23;20815;-86
2020/12/09 01:23:58;;;;;;;31.27;18.70;;;2.50;99.90;;;;;;6177803;23;20395;-86
2020/12/09 01:26:27;;;;;;;30.00;19.43;;;2.50;99.90;;;;;;6204619;23;20591;-85
2020/12/09 01:28:56;;;;;;;40.33;23.03;;;2.50;99.90;;;;;;6201967;23;20846;-85
2020/12/09 01:31:34;;;;;;;33.43;20.00;;;2.50;99.90;;;;;;6204608;23;20386;-85
2020/12/09 01:34:12;;;;;;;38.87;21.67;;;2.50;99.90;;;;;;6204374;23;20740;-86
2020/12/09 01:36:45;;;;;;;32.67;19.87;;;2.50;99.90;;;;;;6202941;23;20387;-85
2020/12/09 01:39:18;;;;;;;31.13;18.73;;;2.50;99.90;;;;;;6202085;23;20395;-85
2020/12/09 01:45:33;;;;;;;;;;;;;;;;;;;;;
2020/12/09 01:48:34;;;;;;;35.07;19.90;;;2.60;99.90;;;;;;6194288;23;20492;-86
2020/12/09 01:54:58;;;;;;;35.43;19.50;;;2.60;99.90;;;;;;6178977;23;20402;-86
2020/12/09 01:57:40;;;;;;;31.03;17.67;;;2.60;99.90;;;;;;6204131;23;20377;-85
2020/12/09 02:00:07;;;;;;;34.67;19.80;;;2.60;99.90;;;;;;6204341;23;20390;-84
2020/12/09 02:02:33;;;;;;;35.20;20.70;;;2.60;99.90;;;;;;6203809;23;20399;-85
2020/12/09 02:05:00;;;;;;;31.30;20.70;;;2.60;99.90;;;;;;6203564;23;20395;-85
2020/12/09 02:07:28;;;;;;;34.47;20.03;;;2.60;99.90;;;;;;6205173;23;20442;-85
2020/12/09 02:10:02;;;;;;;32.87;20.33;;;2.60;99.90;;;;;;6204304;23;20391;-85
2020/12/09 02:12:36;;;;;;;37.87;21.23;;;2.60;99.90;;;;;;6205214;23;20442;-85
2020/12/09 02:15:02;;;;;;;39.70;20.90;;;2.60;99.90;;;;;;6205416;23;20470;-85
2020/12/09 02:17:29;;;;;;;32.53;20.70;;;2.50;99.90;;;;;;6207566;23;20757;-86
2020/12/09 02:19:55;;;;;;;32.00;19.57;;;2.50;99.90;;;;;;6204559;23;20722;-84
2020/12/09 02:22:32;;;;;;;34.50;19.20;;;2.50;99.90;;;;;;6206380;23;20394;-86
2020/12/09 02:24:58;;;;;;;34.53;20.33;;;2.50;99.90;;;;;;6206505;23;20422;-86
2020/12/09 02:27:23;;;;;;;35.97;20.57;;;2.50;99.90;;;;;;6203533;23;20394;-85
2020/12/09 02:29:49;;;;;;;35.90;21.60;;;2.40;99.90;;;;;;6204968;23;20379;-86
2020/12/09 02:32:16;;;;;;;41.30;22.50;;;2.30;99.90;;;;;;6206646;23;20613;-86
2020/12/09 02:34:43;;;;;;;38.10;22.80;;;2.20;99.90;;;;;;6206425;23;20155;-86
2020/12/09 02:37:11;;;;;;;35.33;21.87;;;2.20;99.90;;;;;;6180027;23;20422;-87
2020/12/09 02:39:38;;;;;;;36.30;19.63;;;2.20;99.90;;;;;;6206269;23;20860;-86
2020/12/09 02:42:15;;;;;;;37.73;19.97;;;2.20;99.90;;;;;;6179831;23;20398;-87
2020/12/09 02:44:43;;;;;;;32.30;20.10;;;2.30;99.90;;;;;;6175330;23;20399;-86
2020/12/09 02:47:09;;;;;;;30.73;19.57;;;2.30;99.90;;;;;;6179449;23;20417;-86
2020/12/09 02:49:35;;;;;;;31.93;19.50;;;2.30;99.90;;;;;;6178587;23;20867;-86
2020/12/09 02:52:01;;;;;;;38.70;20.83;;;2.40;99.90;;;;;;6175445;23;20594;-86
2020/12/09 02:54:27;;;;;;;33.33;20.90;;;2.40;99.90;;;;;;6207404;23;20163;-86
2020/12/09 02:56:53;;;;;;;37.47;22.40;;;2.40;99.90;;;;;;6178643;23;20733;-86
2020/12/09 02:59:21;;;;;;;33.27;20.50;;;2.50;99.90;;;;;;6179316;23;20604;-86
2020/12/09 03:01:46;;;;;;;31.03;20.30;;;2.50;99.90;;;;;;6202151;23;20203;-86
2020/12/09 03:04:16;;;;;;;34.13;22.10;;;2.50;99.90;;;;;;6179799;23;20393;-86
2020/12/09 03:06:45;;;;;;;33.63;21.60;;;2.40;99.90;;;;;;6180008;23;20720;-86
2020/12/09 03:09:17;;;;;;;36.63;21.20;;;2.30;99.90;;;;;;6154332;23;20904;-86
2020/12/09 03:11:43;;;;;;;31.90;19.40;;;2.30;99.90;;;;;;6179752;23;20413;-86
2020/12/09 03:14:10;;;;;;;34.00;21.80;;;2.20;99.90;;;;;;6179943;23;20434;-86
2020/12/09 03:16:35;;;;;;;38.40;23.50;;;2.20;99.90;;;;;;6179041;23;20492;-85
2020/12/09 03:19:03;;;;;;;33.43;20.23;;;2.20;99.90;;;;;;6179377;23;20405;-85
2020/12/09 03:21:40;;;;;;;34.07;21.50;;;2.10;99.90;;;;;;6179288;23;20398;-84
2020/12/09 03:24:08;;;;;;;31.23;20.40;;;2.10;99.90;;;;;;6206408;23;20598;-85
2020/12/09 03:26:34;;;;;;;35.83;21.73;;;2.10;99.90;;;;;;6179612;23;20768;-85
2020/12/09 03:29:00;;;;;;;35.77;21.80;;;2.00;99.90;;;;;;6195603;23;20399;-85
2020/12/09 03:31:30;;;;;;;30.67;20.07;;;2.10;99.90;;;;;;6205756;23;20195;-85
2020/12/09 03:33:57;;;;;;;37.70;21.10;;;2.10;99.90;;;;;;6179428;23;20287;-84
2020/12/09 03:36:23;;;;;;;31.57;20.20;;;2.10;99.90;;;;;;6203603;23;20406;-85
2020/12/09 03:38:52;;;;;;;34.13;20.27;;;2.10;99.90;;;;;;6205885;23;20858;-85
2020/12/09 03:41:19;;;;;;;31.83;19.47;;;2.10;99.90;;;;;;6204406;23;20372;-85
2020/12/09 03:43:45;;;;;;;34.90;21.33;;;2.10;99.90;;;;;;6206689;23;20407;-85
2020/12/09 03:46:20;;;;;;;32.80;21.13;;;2.00;99.90;;;;;;6179713;23;20895;-86
2020/12/09 03:49:04;;;;;;;35.33;22.27;;;2.10;99.90;;;;;;6205210;23;20394;-86
2020/12/09 03:51:30;;;;;;;34.90;22.30;;;2.00;99.90;;;;;;6206415;23;20673;-87
2020/12/09 03:53:56;;;;;;;36.80;22.93;;;2.10;99.90;;;;;;6178517;23;20445;-86
2020/12/09 03:56:22;;;;;;;35.10;21.27;;;2.00;99.90;;;;;;6203902;23;20611;-86
2020/12/09 03:58:50;;;;;;;34.20;21.77;;;2.10;99.90;;;;;;6204236;23;20174;-86
2020/12/09 04:01:18;;;;;;;34.37;20.60;;;2.10;99.90;;;;;;6205216;23;20210;-86
2020/12/09 04:04:00;;;;;;;38.63;20.97;;;2.10;99.90;;;;;;6203417;23;20620;-86
2020/12/09 04:06:31;;;;;;;36.80;21.70;;;2.00;99.90;;;;;;6205734;23;20365;-86
2020/12/09 04:09:02;;;;;;;44.23;24.63;;;2.00;99.90;;;;;;6204634;23;20403;-86
2020/12/09 04:11:33;;;;;;;33.30;20.73;;;1.90;99.90;;;;;;6203193;23;20446;-86
2020/12/09 04:14:07;;;;;;;40.80;22.80;;;2.00;99.90;;;;;;6203679;23;20824;-86
2020/12/09 04:19:38;;;;;;;33.53;21.20;;;2.10;99.90;;;;;;6203331;23;20383;-86
2020/12/09 04:22:10;;;;;;;33.43;20.70;;;2.10;99.90;;;;;;6205077;23;20387;-86
2020/12/09 04:24:40;;;;;;;32.60;20.50;;;2.20;99.90;;;;;;6204063;23;20404;-87
2020/12/09 04:27:19;;;;;;;38.83;23.80;;;2.10;99.90;;;;;;6203334;23;20433;-86
2020/12/09 04:30:22;;;;;;;38.43;22.03;;;2.10;99.90;;;;;;6198576;23;20407;-86
2020/12/09 04:33:06;;;;;;;35.73;22.50;;;2.20;99.90;;;;;;6203713;23;20517;-86
2020/12/09 04:36:14;;;;;;;;;;;;;;;;;;;;;
2020/12/09 04:38:58;;;;;;;34.83;20.63;;;2.30;99.90;;;;;;6205222;23;20391;-87
2020/12/09 04:41:49;;;;;;;35.47;20.13;;;2.30;99.90;;;;;;6204161;23;20402;-86
2020/12/09 04:44:56;;;;;;;36.90;21.23;;;2.30;99.90;;;;;;6202910;23;20464;-87
2020/12/09 04:47:41;;;;;;;32.93;20.40;;;2.20;99.90;;;;;;6204935;23;20480;-85
2020/12/09 04:50:10;;;;;;;35.37;21.30;;;2.20;99.90;;;;;;6202665;23;20402;-85
2020/12/09 04:52:46;;;;;;;34.60;20.40;;;2.20;99.90;;;;;;6203203;23;21113;-86
2020/12/09 04:55:16;;;;;;;33.23;21.00;;;2.20;99.90;;;;;;6205084;23;20398;-85
2020/12/09 04:58:02;;;;;;;35.73;21.10;;;2.20;99.90;;;;;;6201718;23;20399;-85
2020/12/09 05:00:30;;;;;;;32.87;19.93;;;2.10;99.90;;;;;;6203991;23;20360;-85
2020/12/09 05:03:15;;;;;;;35.50;21.27;;;2.20;99.90;;;;;;6202605;23;20541;-85
2020/12/09 05:05:44;;;;;;;33.07;20.17;;;2.20;99.90;;;;;;6203567;23;20379;-85
2020/12/09 05:08:37;;;;;;;33.40;21.20;;;2.20;99.90;;;;;;6203944;23;20395;-85
2020/12/09 05:11:11;;;;;;;38.23;21.40;;;2.20;99.90;;;;;;6192616;23;20396;-86
2020/12/09 05:13:41;;;;;;;33.37;20.60;;;2.30;99.90;;;;;;6205588;23;20463;-85
2020/12/09 05:16:11;;;;;;;31.80;20.33;;;2.30;99.90;;;;;;6201427;23;20393;-86
2020/12/09 05:18:41;;;;;;;32.03;19.43;;;2.30;99.90;;;;;;6203786;23;20395;-85
2020/12/09 05:21:17;;;;;;;28.10;18.47;;;2.30;99.90;;;;;;6204672;23;20884;-86
2020/12/09 05:23:51;;;;;;;34.00;21.40;;;2.40;99.90;;;;;;6205122;23;20667;-86
2020/12/09 05:26:43;;;;;;;35.13;21.20;;;2.30;99.90;;;;;;6205424;23;20363;-85
2020/12/09 05:29:19;;;;;;;36.07;22.23;;;2.30;99.90;;;;;;6195718;23;20465;-87
2020/12/09 05:31:48;;;;;;;32.50;21.40;;;2.30;99.90;;;;;;6201801;23;20938;-85
2020/12/09 05:34:28;;;;;;;35.53;21.10;;;2.30;99.90;;;;;;6195765;23;20466;-85
2020/12/09 05:37:14;;;;;;;32.13;21.43;;;2.30;99.90;;;;;;6202715;23;20788;-85
2020/12/09 05:40:08;;;;;;;40.80;22.97;;;2.30;99.90;;;;;;6181434;23;20398;-84
2020/12/09 05:42:42;;;;;;;37.27;21.67;;;2.40;99.90;;;;;;6204037;23;20401;-85
2020/12/09 05:45:12;;;;;;;33.87;21.23;;;2.30;99.90;;;;;;6204079;23;20382;-84
2020/12/09 05:47:38;;;;;;;35.60;21.10;;;2.30;99.90;;;;;;6206025;23;20387;-84
2020/12/09 05:50:27;;;;;;;35.00;21.30;;;2.40;99.90;;;;;;6203543;23;20489;-85
2020/12/09 05:52:56;;;;;;;34.60;20.63;;;2.30;99.90;;;;;;6200699;23;20270;-84
2020/12/09 05:55:31;;;;;;;35.63;20.80;;;2.40;99.90;;;;;;6179176;23;20383;-85
2020/12/09 05:58:27;;;;;;;34.57;20.40;;;2.40;99.90;;;;;;6203931;23;20423;-87
2020/12/09 06:01:21;;;;;;;36.50;21.00;;;2.50;99.90;;;;;;6204152;23;20379;-86
2020/12/09 06:03:57;;;;;;;38.90;21.37;;;2.50;99.90;;;;;;6200632;23;20387;-86
2020/12/09 06:06:28;;;;;;;48.50;29.47;;;2.30;99.90;;;;;;6192360;23;20852;-87
2020/12/09 06:09:23;;;;;;;40.73;23.13;;;2.30;99.90;;;;;;6204085;23;20362;-87
2020/12/09 06:11:49;;;;;;;41.60;26.33;;;2.30;99.90;;;;;;6177600;23;20419;-86
2020/12/09 06:14:18;;;;;;;46.07;27.40;;;2.30;99.90;;;;;;6203858;23;21022;-85
2020/12/09 06:16:53;;;;;;;48.67;29.90;;;2.30;99.90;;;;;;6203812;23;20490;-85
2020/12/09 06:19:39;;;;;;;40.20;24.00;;;2.30;99.90;;;;;;6204823;23;20705;-85
2020/12/09 06:22:05;;;;;;;37.87;22.80;;;2.30;99.90;;;;;;6203593;23;20705;-86
2020/12/09 06:24:31;;;;;;;42.00;21.80;;;2.30;99.90;;;;;;6202494;23;20461;-86
2020/12/09 06:26:58;;;;;;;36.60;22.47;;;2.40;99.90;;;;;;6202237;23;20164;-86
2020/12/09 06:29:27;;;;;;;40.27;22.07;;;2.40;99.90;;;;;;6202203;23;20734;-87
2020/12/09 06:32:39;;;;;;;41.17;22.33;;;2.40;99.90;;;;;;6204211;23;20398;-87
2020/12/09 06:35:19;;;;;;;38.63;21.83;;;2.40;99.90;;;;;;6203756;23;20402;-85
2020/12/09 06:38:25;;;;;;;37.60;21.40;;;2.40;99.90;;;;;;6203158;23;20684;-86
2020/12/09 06:41:13;;;;;;;51.60;25.80;;;2.40;99.90;;;;;;6204002;23;21101;-86
2020/12/09 06:44:16;;;;;;;41.30;21.53;;;2.40;99.90;;;;;;6203276;23;20394;-85
2020/12/09 06:46:48;;;;;;;36.03;21.20;;;2.40;99.90;;;;;;6198134;23;20390;-85
2020/12/09 06:49:55;;;;;;;34.93;20.77;;;2.40;99.90;;;;;;6197230;23;20391;-85
2020/12/09 06:52:37;;;;;;;34.87;21.40;;;2.50;99.90;;;;;;6202929;23;20395;-86
2020/12/09 06:55:22;;;;;;;39.20;22.20;;;2.40;99.90;;;;;;6197375;23;20402;-85
2020/12/09 06:57:59;;;;;;;39.30;22.87;;;2.40;99.90;;;;;;6205428;23;20768;-86
2020/12/09 07:00:25;;;;;;;35.93;22.50;;;2.40;99.90;;;;;;6203928;23;20399;-85
2020/12/09 07:02:55;;;;;;;40.97;23.23;;;2.40;99.90;;;;;;6203866;23;20406;-85
2020/12/09 07:05:36;;;;;;;42.17;24.33;;;2.40;99.90;;;;;;6177061;23;21110;-85
2020/12/09 07:08:05;;;;;;;42.13;24.70;;;2.40;99.90;;;;;;6205915;23;20464;-85
2020/12/09 07:10:41;;;;;;;39.70;22.93;;;2.30;99.90;;;;;;6204131;23;20441;-85
2020/12/09 07:13:22;;;;;;;38.07;23.23;;;2.30;99.90;;;;;;6202247;23;20445;-84
2020/12/09 07:15:55;;;;;;;36.20;21.10;;;2.30;99.90;;;;;;6203123;23;20402;-84
2020/12/09 07:18:29;;;;;;;32.00;21.93;;;2.30;99.90;;;;;;6179613;23;20398;-85
2020/12/09 07:21:06;;;;;;;39.10;22.03;;;2.20;99.90;;;;;;6205693;23;20382;-85
2020/12/09 07:23:44;;;;;;;37.27;21.97;;;2.20;99.90;;;;;;6180168;23;21236;-85
2020/12/09 07:26:51;;;;;;;;;;;;;;;;;;;;;
2020/12/09 07:29:32;;;;;;;34.60;20.00;;;2.30;99.90;;;;;;6204370;23;20421;-85
2020/12/09 07:32:07;;;;;;;36.20;21.47;;;2.40;99.90;;;;;;6194944;23;20426;-85
2020/12/09 07:34:55;;;;;;;37.07;21.27;;;2.30;99.90;;;;;;6196126;23;20782;-85
2020/12/09 07:37:33;;;;;;;37.13;21.20;;;2.40;99.90;;;;;;6202715;23;20506;-85
2020/12/09 07:40:28;;;;;;;32.50;20.47;;;2.40;99.90;;;;;;6200839;23;20685;-85
2020/12/09 07:42:58;;;;;;;35.10;21.57;;;2.40;99.90;;;;;;6204760;23;20391;-85
2020/12/09 07:45:24;;;;;;;36.90;22.53;;;2.30;99.90;;;;;;6179855;23;20721;-85
2020/12/09 07:48:02;;;;;;;36.03;22.03;;;2.40;99.90;;;;;;6204598;23;20379;-86
2020/12/09 07:50:32;;;;;;;36.90;23.10;;;2.50;99.90;;;;;;6203692;23;20394;-87
2020/12/09 07:52:58;;;;;;;40.20;23.57;;;2.50;99.90;;;;;;6206504;23;20559;-87
2020/12/09 07:55:27;;;;;;;42.27;26.90;;;2.50;99.90;;;;;;6201812;23;20375;-85
2020/12/09 07:58:06;;;;;;;39.60;25.07;;;2.50;99.90;;;;;;6203802;23;20453;-87
2020/12/09 08:00:38;;;;;;;35.73;22.90;;;2.50;99.90;;;;;;6204585;23;20896;-86
2020/12/09 08:03:06;;;;;;;38.23;24.60;;;2.50;99.90;;;;;;6204102;23;20425;-86
2020/12/09 08:14:48;;;;;;;37.27;22.43;;;2.60;99.90;;;;;;6203736;23;20876;-91
2020/12/09 08:17:37;;;;;;;43.50;22.83;;;2.50;99.90;;;;;;6180602;23;20765;-89
2020/12/09 08:20:44;;;;;;;67.93;41.30;;;2.50;99.90;;;;;;6207944;23;20378;-90
2020/12/09 08:23:18;;;;;;;48.20;29.87;;;2.60;99.90;;;;;;6177126;23;20387;-92
2020/12/09 08:25:56;;;;;;;44.33;23.67;;;2.60;99.90;;;;;;6180904;23;20425;-89
2020/12/09 08:29:03;;;;;;;59.83;39.43;;;2.60;99.90;;;;;;6208890;23;20693;-89
2020/12/09 08:31:43;;;;;;;59.53;34.67;;;2.60;99.90;;;;;;6176566;23;20471;-91
2020/12/09 08:34:15;;;;;;;49.80;25.70;;;2.60;99.90;;;;;;6207221;23;20426;-88
2020/12/09 08:36:42;;;;;;;45.00;21.03;;;2.60;99.90;;;;;;6208461;23;20446;-88
2020/12/09 08:39:26;;;;;;;;;;;;;;;;;;;;;
2020/12/09 08:42:07;;;;;;;35.27;21.90;;;3.30;99.90;;;;;;6206256;23;20768;-90
2020/12/09 08:45:08;;;;;;;32.53;20.47;;;3.50;99.90;;;;;;6206416;23;20372;-89
2020/12/09 08:47:43;;;;;;;34.53;21.07;;;4.20;99.90;;;;;;6178183;23;20720;-86
2020/12/09 08:50:23;;;;;;;35.00;22.53;;;4.00;99.90;;;;;;6177810;23;20461;-86
2020/12/09 08:52:51;;;;;;;33.53;20.67;;;3.60;99.90;;;;;;6174247;23;20588;-85
2020/12/09 08:55:17;;;;;;;36.57;21.53;;;3.40;99.90;;;;;;6205611;23;20447;-86
2020/12/09 08:57:43;;;;;;;39.40;22.17;;;3.20;99.90;;;;;;6173850;23;20477;-85
2020/12/09 09:00:10;;;;;;;35.33;21.47;;;2.90;99.90;;;;;;6177760;23;20152;-84
2020/12/09 09:02:48;;;;;;;37.33;23.00;;;2.90;99.90;;;;;;6178514;23;20391;-87
2020/12/09 09:05:15;;;;;;;39.07;23.20;;;2.80;99.90;;;;;;6154553;23;20392;-84
2020/12/09 09:07:42;;;;;;;43.20;24.47;;;2.80;99.90;;;;;;6178103;23;20449;-85
2020/12/09 09:10:08;;;;;;;45.20;22.50;;;2.70;99.90;;;;;;6182779;23;20417;-85
2020/12/09 09:12:34;;;;;;;41.77;24.10;;;2.60;99.90;;;;;;6202245;23;20391;-85
2020/12/09 09:15:01;;;;;;;44.03;24.87;;;2.50;99.90;;;;;;6202990;23;20534;-87
2020/12/09 09:17:27;;;;;;;43.63;25.80;;;2.60;99.90;;;;;;6203564;23;20148;-85
2020/12/09 09:19:53;;;;;;;58.33;28.50;;;2.60;99.90;;;;;;6202277;23;20394;-86
2020/12/09 09:22:18;;;;;;;49.07;26.17;;;2.70;99.90;;;;;;6153434;23;20198;-85
2020/12/09 09:24:44;;;;;;;47.13;27.17;;;2.70;99.90;;;;;;6203998;23;20849;-85
2020/12/09 09:27:11;;;;;;;43.20;26.07;;;2.80;99.90;;;;;;6203010;23;20460;-85
2020/12/09 09:29:38;;;;;;;42.67;27.07;;;2.80;99.90;;;;;;6203055;23;20243;-86
2020/12/09 09:32:04;;;;;;;42.40;24.80;;;2.80;99.90;;;;;;6202944;23;20426;-85
2020/12/09 09:34:49;;;;;;;42.60;24.57;;;2.90;99.90;;;;;;6202368;23;20518;-86
2020/12/09 09:37:15;;;;;;;46.90;26.53;;;2.80;99.90;;;;;;6203349;23;20706;-86
2020/12/09 09:39:53;;;;;;;42.10;24.37;;;2.80;99.90;;;;;;6196266;23;20392;-85
2020/12/09 09:42:19;;;;;;;40.37;24.10;;;2.90;99.90;;;;;;6202594;23;20170;-85
2020/12/09 09:44:45;;;;;;;42.87;24.23;;;2.90;99.90;;;;;;6203435;23;20379;-85
2020/12/09 09:47:11;;;;;;;40.73;22.23;;;3.00;99.90;;;;;;6203344;23;20931;-86
2020/12/09 09:49:37;;;;;;;42.03;23.90;;;3.00;99.90;;;;;;6202846;23;20379;-84
2020/12/09 09:52:21;;;;;;;37.13;23.13;;;3.00;99.90;;;;;;6203237;23;20157;-85
2020/12/09 09:55:05;;;;;;;43.70;24.83;;;3.00;99.90;;;;;;6202141;23;20484;-85
2020/12/09 09:57:33;;;;;;;42.30;22.53;;;2.90;99.90;;;;;;6202407;23;20732;-87
2020/12/09 09:59:59;;;;;;;40.80;22.30;;;2.90;99.90;;;;;;6202755;23;20392;-87
2020/12/09 10:02:24;;;;;;;43.37;22.93;;;2.90;99.90;;;;;;6204048;23;20382;-86
2020/12/09 10:05:09;;;;;;;43.20;23.33;;;2.90;99.90;;;;;;6204927;23;20400;-85
2020/12/09 10:07:35;;;;;;;41.23;23.57;;;3.00;99.90;;;;;;6204997;23;20568;-84
2020/12/09 10:10:03;;;;;;;36.00;22.60;;;3.00;99.90;;;;;;6204089;23;20492;-85
2020/12/09 10:12:31;;;;;;;40.17;23.97;;;3.00;99.90;;;;;;6202749;23;20171;-85
2020/12/09 10:14:56;;;;;;;43.27;27.17;;;3.00;99.90;;;;;;6203083;23;20711;-84
2020/12/09 10:17:22;;;;;;;37.43;22.50;;;3.00;99.90;;;;;;6201637;23;20984;-85
2020/12/09 10:19:48;;;;;;;40.93;25.97;;;3.00;99.90;;;;;;6202004;23;20159;-84
2020/12/09 10:22:20;;;;;;;40.43;24.13;;;3.00;99.90;;;;;;6197860;23;20171;-85
2020/12/09 10:24:45;;;;;;;44.53;25.70;;;3.00;99.90;;;;;;6197027;23;20187;-84
2020/12/09 10:27:11;;;;;;;45.97;24.73;;;2.90;99.90;;;;;;6203606;23;20762;-84
2020/12/09 10:29:37;;;;;;;41.60;24.80;;;2.80;99.90;;;;;;6202743;23;20186;-86
2020/12/09 10:32:02;;;;;;;42.10;23.80;;;2.90;99.90;;;;;;6205222;23;20151;-85
2020/12/09 10:34:28;;;;;;;40.70;23.33;;;2.90;99.90;;;;;;6206093;23;20180;-85
2020/12/09 10:37:00;;;;;;;45.67;23.70;;;3.00;99.90;;;;;;6204638;23;20156;-86
2020/12/09 10:39:25;;;;;;;40.63;22.93;;;2.90;99.90;;;;;;6205594;23;20557;-84
2020/12/09 10:41:51;;;;;;;43.30;24.80;;;2.90;99.90;;;;;;6204850;23;20465;-85
2020/12/09 10:44:26;;;;;;;40.30;24.30;;;2.90;99.90;;;;;;6205245;23;20152;-86
2020/12/09 10:46:52;;;;;;;36.30;22.07;;;3.00;99.90;;;;;;6205362;23;20259;-85
2020/12/09 10:49:17;;;;;;;41.67;24.43;;;3.00;99.90;;;;;;6205538;23;20700;-85
2020/12/09 10:51:45;;;;;;;38.60;22.83;;;2.90;99.90;;;;;;6204991;23;20159;-84
2020/12/09 10:54:16;;;;;;;36.93;22.60;;;2.80;99.90;;;;;;6204944;23;20193;-87
2020/12/09 10:56:51;;;;;;;40.07;23.40;;;2.80;99.90;;;;;;6204991;23;20776;-86
2020/12/09 10:59:19;;;;;;;42.20;23.73;;;2.80;99.90;;;;;;6204387;23;20398;-86
2020/12/09 11:01:45;;;;;;;42.60;26.30;;;2.80;99.90;;;;;;6204302;23;20783;-87
2020/12/09 11:04:14;;;;;;;42.37;23.30;;;2.80;99.90;;;;;;6201850;23;20574;-87
2020/12/09 11:06:42;;;;;;;46.40;27.17;;;2.90;99.90;;;;;;6202498;23;20737;-88
2020/12/09 11:09:08;;;;;;;42.13;23.97;;;2.80;99.90;;;;;;6204404;23;20399;-87
2020/12/09 11:11:34;;;;;;;41.83;24.70;;;2.80;99.90;;;;;;6204370;23;20410;-87
2020/12/09 11:14:00;;;;;;;42.00;24.20;;;2.90;99.90;;;;;;6205046;23;20820;-87
2020/12/09 11:16:26;;;;;;;40.20;21.97;;;2.90;99.90;;;;;;6204920;23;20376;-86
2020/12/09 11:18:59;;;;;;;38.87;22.93;;;3.00;99.90;;;;;;6204319;23;20624;-87
2020/12/09 11:21:32;;;;;;;40.00;23.73;;;3.10;99.90;;;;;;6206367;23;20383;-87
2020/12/09 11:24:01;;;;;;;36.10;22.90;;;3.10;99.90;;;;;;6206834;23;20403;-87
2020/12/09 11:26:34;;;;;;;37.67;22.90;;;3.10;99.90;;;;;;6204699;23;20437;-88
2020/12/09 11:29:17;;;;;;;35.43;21.93;;;3.10;99.90;;;;;;6205158;23;20757;-87
2020/12/09 11:32:15;;;;;;;39.43;22.60;;;3.20;99.90;;;;;;6200313;23;20956;-88
2020/12/09 11:35:05;;;;;;;39.53;22.33;;;3.10;99.90;;;;;;6204129;23;20427;-87
2020/12/09 11:38:02;;;;;;;40.07;25.00;;;3.10;99.90;;;;;;6205720;23;20381;-88
2020/12/09 11:41:04;;;;;;;38.53;23.27;;;3.10;99.90;;;;;;6199761;23;20406;-89
2020/12/09 11:44:34;;;;;;;44.00;24.60;;;3.10;99.90;;;;;;6203806;23;20710;-87
2020/12/09 11:47:56;;;;;;;38.30;24.00;;;3.00;99.90;;;;;;6200527;23;20505;-88
2020/12/09 11:50:23;;;;;;;32.87;19.40;;;2.90;99.90;;;;;;6203649;23;20403;-86
2020/12/09 11:53:15;;;;;;;;;;;;;;;;;;;;;
2020/12/09 11:55:59;;;;;;;35.87;21.40;;;2.90;99.90;;;;;;6117228;23;20506;-86
2020/12/09 11:59:15;;;;;;;35.80;22.60;;;2.90;99.90;;;;;;6204839;23;20773;-87
2020/12/09 12:01:40;;;;;;;38.97;23.03;;;2.90;99.90;;;;;;6186232;23;20427;-87
2020/12/09 12:04:28;;;;;;;74.27;39.83;;;2.80;99.90;;;;;;6206730;23;20831;-87
2020/12/09 12:06:58;;;;;;;44.87;24.63;;;2.80;99.90;;;;;;6204966;23;20206;-86
2020/12/09 12:09:24;;;;;;;45.10;25.10;;;2.70;99.90;;;;;;6206920;23;20379;-87
2020/12/09 12:11:56;;;;;;;40.10;23.60;;;2.70;99.90;;;;;;6206400;23;20387;-86
2020/12/09 12:14:47;;;;;;;40.43;22.53;;;2.70;99.90;;;;;;6178097;23;20525;-86
2020/12/09 12:32:58;;;;;;;40.40;23.70;;;2.90;99.90;;;;;;6207120;23;20392;-85
2020/12/09 12:35:24;;;;;;;40.20;23.13;;;2.90;99.90;;;;;;6202574;23;20411;-84
2020/12/09 12:37:52;;;;;;;32.33;21.13;;;2.90;99.90;;;;;;6180397;23;20408;-84
2020/12/09 12:40:18;;;;;;;32.90;21.33;;;2.90;99.90;;;;;;6182042;23;20172;-85
2020/12/09 12:42:49;;;;;;;40.10;22.50;;;2.90;99.90;;;;;;6215806;23;20845;-83
2020/12/09 12:45:22;;;;;;;36.70;24.00;;;2.90;99.90;;;;;;6189959;23;20168;-85
2020/12/09 12:47:51;;;;;;;37.83;23.30;;;3.10;99.90;;;;;;6209723;23;20688;-84
2020/12/09 12:53:47;;;;;;;33.50;22.33;;;3.00;99.90;;;;;;6199891;23;20577;-85
2020/12/09 12:56:20;;;;;;;36.03;22.73;;;3.00;99.90;;;;;;6179479;23;20432;-84
2020/12/09 12:58:50;;;;;;;40.13;22.90;;;3.00;99.90;;;;;;6178459;23;21063;-83
2020/12/09 13:01:46;;;;;;;41.30;24.07;;;2.90;99.90;;;;;;6204357;23;20621;-84
2020/12/09 13:04:33;;;;;;;41.57;24.00;;;2.80;99.90;;;;;;6202921;23;20409;-85
2020/12/09 13:07:20;;;;;;;41.27;23.77;;;2.80;99.90;;;;;;6204943;23;20371;-86
2020/12/09 13:10:03;;;;;;;41.37;23.67;;;2.80;99.90;;;;;;6202533;23;20386;-87
2020/12/09 13:13:01;;;;;;;45.43;23.63;;;2.80;99.90;;;;;;6175774;23;20379;-87
2020/12/09 13:15:45;;;;;;;51.07;24.10;;;2.80;99.90;;;;;;6178147;23;20405;-86
2020/12/09 13:18:11;;;;;;;44.73;22.87;;;2.70;99.90;;;;;;6204480;23;20400;-85
2020/12/09 13:20:40;;;;;;;48.20;25.40;;;2.80;99.90;;;;;;6177458;23;20800;-88
2020/12/09 13:23:08;;;;;;;46.47;24.67;;;2.80;99.90;;;;;;6177485;23;20422;-86
2020/12/09 13:25:33;;;;;;;40.50;22.70;;;2.70;99.90;;;;;;6177977;23;20872;-85
2020/12/09 13:28:14;;;;;;;37.37;23.03;;;2.80;99.90;;;;;;6205556;23;20391;-89
2020/12/09 13:30:53;;;;;;;40.50;22.87;;;2.80;99.90;;;;;;6205627;23;20160;-87
2020/12/09 13:33:24;;;;;;;46.70;23.20;;;2.80;99.90;;;;;;6176687;23;20769;-86
2020/12/09 13:35:50;;;;;;;48.03;23.33;;;2.80;99.90;;;;;;6177393;23;20403;-85
2020/12/09 13:38:21;;;;;;;44.40;23.70;;;2.80;99.90;;;;;;6182604;23;20469;-85
2020/12/09 13:40:49;;;;;;;47.00;25.13;;;2.70;99.90;;;;;;6177422;23;20397;-85
2020/12/09 13:43:17;;;;;;;44.50;22.80;;;2.80;99.90;;;;;;6178591;23;20399;-84
2020/12/09 13:45:45;;;;;;;38.43;21.23;;;2.80;99.90;;;;;;6204046;23;20383;-83
2020/12/09 13:48:15;;;;;;;37.97;21.10;;;2.80;99.90;;;;;;6204250;23;20153;-84
2020/12/09 13:50:57;;;;;;;40.70;21.30;;;2.70;99.90;;;;;;6204285;23;20368;-85
2020/12/09 13:53:23;;;;;;;55.77;30.43;;;2.80;99.90;;;;;;6177768;23;20822;-84
2020/12/09 13:55:48;;;;;;;42.73;23.30;;;2.80;99.90;;;;;;6200640;23;20458;-84
2020/12/09 13:58:23;;;;;;;40.73;22.50;;;2.80;99.90;;;;;;6204517;23;20578;-83
2020/12/09 14:00:49;;;;;;;36.33;19.40;;;2.80;99.90;;;;;;6176580;23;20528;-84
2020/12/09 14:03:18;;;;;;;38.23;19.03;;;2.80;99.90;;;;;;6177548;23;20385;-84
2020/12/09 14:06:01;;;;;;;39.87;21.30;;;2.80;99.90;;;;;;6177213;23;20149;-83
2020/12/09 14:08:26;;;;;;;36.47;19.57;;;2.80;99.90;;;;;;6178549;23;20402;-84
2020/12/09 14:17:02;;;;;;;38.10;21.90;;;2.60;99.90;;;;;;6204822;23;20713;-88
2020/12/09 14:20:08;;;;;;;;;;;;;;;;;;;;;